createdAt,value
2023-04-08T00:01:26.466Z,16.30
2023-04-08T00:03:54.789Z,16.10
2023-04-08T00:06:23.101Z,16.10
2023-04-08T00:08:51.561Z,15.80
2023-04-08T00:11:20.055Z,15.30
2023-04-08T00:13:49.605Z,15.10
2023-04-08T00:16:17.785Z,15.20
2023-04-08T00:18:46.017Z,15.40
2023-04-08T00:21:16.430Z,15.40
2023-04-08T00:23:44.710Z,15.30
2023-04-08T00:26:12.876Z,15.20
2023-04-08T00:28:43.146Z,15.30
2023-04-08T00:31:12.832Z,15.30
2023-04-08T00:33:42.607Z,15.80
2023-04-08T00:36:12.088Z,16.00
2023-04-08T00:38:40.336Z,16.30
2023-04-08T00:41:08.730Z,16.40
2023-04-08T00:43:36.886Z,16.10
2023-04-08T00:46:05.918Z,16.00
2023-04-08T00:48:35.741Z,15.60
2023-04-08T00:51:04.650Z,15.70
2023-04-08T00:53:33.398Z,15.20
2023-04-08T00:56:01.690Z,15.20
2023-04-08T00:58:30.870Z,15.70
2023-04-08T01:01:04.536Z,15.80
2023-04-08T01:03:47.690Z,15.60
2023-04-08T01:06:27.932Z,15.50
2023-04-08T01:08:58.042Z,15.20
2023-04-08T01:11:32.279Z,15.30
2023-04-08T01:14:03.049Z,15.40
2023-04-08T01:16:31.274Z,15.20
2023-04-08T01:19:01.414Z,15.00
2023-04-08T01:21:30.213Z,15.10
2023-04-08T01:24:05.609Z,14.80
2023-04-08T01:26:36.485Z,14.60
2023-04-08T01:29:06.373Z,15.00
2023-04-08T01:31:36.979Z,15.20
2023-04-08T01:34:06.486Z,14.80
2023-04-08T01:36:37.173Z,14.90
2023-04-08T01:39:07.706Z,15.10
2023-04-08T01:41:38.371Z,14.80
2023-04-08T01:44:06.914Z,14.80
2023-04-08T01:46:36.067Z,14.90
2023-04-08T01:49:06.813Z,15.20
2023-04-08T01:51:38.895Z,15.40
2023-04-08T01:54:07.768Z,15.60
2023-04-08T01:56:40.247Z,15.60
2023-04-08T01:59:13.337Z,15.50
2023-04-08T02:01:44.008Z,15.70
2023-04-08T02:04:13.803Z,15.70
2023-04-08T02:06:42.178Z,15.40
2023-04-08T02:09:10.372Z,15.40
2023-04-08T02:11:40.248Z,15.20
2023-04-08T02:14:08.420Z,14.90
2023-04-08T02:16:43.990Z,14.90
2023-04-08T02:19:16.897Z,15.00
2023-04-08T02:21:50.218Z,14.70
2023-04-08T02:24:19.972Z,14.90
2023-04-08T02:26:51.871Z,15.00
2023-04-08T02:29:20.664Z,14.80
2023-04-08T02:31:51.150Z,14.60
2023-04-08T02:34:22.093Z,14.80
2023-04-08T02:36:51.203Z,14.80
2023-04-08T02:39:19.610Z,14.90
2023-04-08T02:41:51.913Z,14.80
2023-04-08T02:44:23.165Z,14.60
2023-04-08T02:46:51.317Z,14.50
2023-04-08T02:49:19.749Z,15.00
2023-04-08T02:51:47.960Z,15.50
2023-04-08T02:54:16.167Z,15.80
2023-04-08T02:56:44.474Z,16.20
2023-04-08T02:59:14.210Z,15.90
2023-04-08T03:01:42.406Z,15.90
2023-04-08T03:04:10.648Z,16.30
2023-04-08T03:06:38.875Z,16.20
2023-04-08T03:09:07.102Z,16.20
2023-04-08T03:11:35.505Z,16.30
2023-04-08T03:14:03.702Z,16.40
2023-04-08T03:16:33.249Z,16.50
2023-04-08T03:19:01.429Z,16.70
2023-04-08T03:21:31.657Z,17.00
2023-04-08T03:23:59.851Z,17.10
2023-04-08T03:26:28.167Z,17.50
2023-04-08T03:28:56.299Z,17.70
2023-04-08T03:31:24.754Z,18.00
2023-04-08T03:33:54.369Z,18.20
2023-04-08T03:36:22.558Z,18.00
2023-04-08T03:38:50.980Z,18.00
2023-04-08T03:41:19.302Z,17.50
2023-04-08T03:43:47.610Z,17.60
2023-04-08T03:46:15.989Z,17.70
2023-04-08T03:48:44.427Z,17.80
2023-04-08T03:51:13.985Z,18.00
2023-04-08T03:53:43.501Z,18.00
2023-04-08T03:56:11.972Z,18.00
2023-04-08T03:58:40.125Z,17.90
2023-04-08T04:01:08.345Z,18.10
2023-04-08T04:03:37.031Z,18.10
2023-04-08T04:06:05.672Z,18.20
2023-04-08T04:08:35.209Z,18.20
2023-04-08T04:11:05.542Z,18.00
2023-04-08T04:13:33.742Z,18.20
2023-04-08T04:16:01.965Z,18.00
2023-04-08T04:18:30.256Z,17.90
2023-04-08T04:20:58.435Z,17.70
2023-04-08T04:23:26.607Z,17.50
2023-04-08T04:25:56.179Z,17.40
2023-04-08T04:28:24.317Z,17.50
2023-04-08T04:30:54.150Z,17.60
2023-04-08T04:33:25.258Z,17.10
2023-04-08T04:35:53.584Z,16.40
2023-04-08T04:38:21.848Z,16.40
2023-04-08T04:40:50.039Z,16.40
2023-04-08T04:43:19.631Z,16.50
2023-04-08T04:45:47.854Z,16.60
2023-04-08T04:48:16.197Z,16.70
2023-04-08T04:50:46.567Z,16.90
2023-04-08T04:53:14.742Z,17.00
2023-04-08T04:55:43.135Z,17.00
2023-04-08T04:58:11.505Z,17.10
2023-04-08T05:00:43.695Z,17.30
2023-04-08T05:03:11.962Z,17.40
2023-04-08T05:05:40.740Z,17.30
2023-04-08T05:08:08.953Z,17.60
2023-04-08T05:10:37.137Z,17.70
2023-04-08T05:13:05.393Z,17.90
2023-04-08T05:15:33.929Z,17.80
2023-04-08T05:18:05.839Z,17.90
2023-04-08T05:20:34.049Z,17.80
2023-04-08T05:23:04.177Z,17.60
2023-04-08T05:25:32.386Z,17.10
2023-04-08T05:28:00.585Z,17.30
2023-04-08T05:30:28.862Z,17.40
2023-04-08T05:32:59.908Z,17.50
2023-04-08T05:35:30.216Z,17.30
2023-04-08T05:37:58.436Z,17.40
2023-04-08T05:40:26.827Z,17.70
2023-04-08T05:42:55.018Z,17.80
2023-04-08T05:45:23.155Z,17.60
2023-04-08T05:47:51.453Z,17.30
2023-04-08T05:50:19.857Z,17.50
2023-04-08T05:52:49.490Z,17.30
2023-04-08T05:55:17.676Z,17.30
2023-04-08T05:57:48.913Z,17.50
2023-04-08T06:00:17.898Z,17.70
2023-04-08T06:02:46.406Z,18.00
2023-04-08T06:05:14.864Z,17.70
2023-04-08T06:07:43.013Z,17.40
2023-04-08T06:10:12.839Z,17.60
2023-04-08T06:12:41.478Z,17.60
2023-04-08T06:15:10.577Z,17.80
2023-04-08T06:17:38.886Z,18.10
2023-04-08T06:20:09.231Z,18.10
2023-04-08T06:22:37.934Z,17.60
2023-04-08T06:25:06.900Z,17.50
2023-04-08T06:27:36.429Z,17.70
2023-04-08T06:30:04.999Z,17.70
2023-04-08T06:32:33.269Z,17.50
2023-04-08T06:35:01.938Z,17.10
2023-04-08T06:37:30.198Z,16.40
2023-04-08T06:39:58.518Z,16.10
2023-04-08T06:42:27.328Z,16.20
2023-04-08T06:45:10.030Z,16.40
2023-04-08T06:47:38.273Z,16.30
2023-04-08T06:50:07.529Z,15.90
2023-04-08T06:52:35.738Z,15.90
2023-04-08T06:55:04.092Z,15.80
2023-04-08T06:57:32.314Z,15.70
2023-04-08T07:00:02.160Z,15.50
2023-04-08T07:02:31.875Z,15.90
2023-04-08T07:05:00.111Z,16.60
2023-04-08T07:07:29.594Z,17.40
2023-04-08T07:09:57.774Z,17.50
2023-04-08T07:12:25.930Z,18.10
2023-04-08T07:14:54.164Z,18.30
2023-04-08T07:17:22.491Z,18.30
2023-04-08T07:19:52.252Z,18.60
2023-04-08T07:22:20.449Z,18.10
2023-04-08T07:24:50.010Z,18.10
2023-04-08T07:27:18.257Z,17.80
2023-04-08T07:29:48.136Z,17.70
2023-04-08T07:32:16.315Z,17.90
2023-04-08T07:34:44.506Z,17.70
2023-04-08T07:37:14.069Z,17.60
2023-04-08T07:39:43.663Z,17.70
2023-04-08T07:42:14.704Z,17.90
2023-04-08T07:44:43.192Z,17.80
2023-04-08T07:47:11.916Z,18.00
2023-04-08T07:49:40.425Z,17.90
2023-04-08T07:52:08.635Z,18.30
2023-04-08T07:54:38.174Z,18.20
2023-04-08T07:57:06.319Z,18.00
2023-04-08T07:59:34.672Z,17.60
2023-04-08T08:02:03.339Z,17.80
2023-04-08T08:04:32.634Z,17.60
2023-04-08T08:07:00.989Z,17.70
2023-04-08T08:09:31.002Z,18.10
2023-04-08T08:12:02.793Z,18.20
2023-04-08T08:14:31.002Z,18.30
2023-04-08T08:16:59.227Z,18.90
2023-04-08T08:19:27.377Z,18.90
2023-04-08T08:21:56.171Z,19.20
2023-04-08T08:24:24.418Z,19.30
2023-04-08T08:26:52.533Z,19.00
2023-04-08T08:29:22.088Z,18.50
2023-04-08T08:31:50.480Z,18.10
2023-04-08T08:34:18.686Z,17.90
2023-04-08T08:36:46.868Z,17.90
2023-04-08T08:39:15.136Z,18.00
2023-04-08T08:41:43.587Z,17.80
2023-04-08T08:44:12.088Z,17.70
2023-04-08T08:46:45.516Z,18.10
2023-04-08T08:49:14.116Z,18.30
2023-04-08T08:51:42.625Z,18.40
2023-04-08T08:54:11.262Z,18.00
2023-04-08T08:56:40.349Z,17.90
2023-04-08T08:59:08.701Z,17.70
2023-04-08T09:01:38.621Z,17.90
2023-04-08T09:04:14.339Z,18.00
2023-04-08T09:06:42.819Z,18.40
2023-04-08T09:09:13.820Z,18.30
2023-04-08T09:11:43.592Z,18.10
2023-04-08T09:14:22.532Z,18.30
2023-04-08T09:16:51.942Z,19.00
2023-04-08T09:19:21.789Z,19.30
2023-04-08T09:22:08.356Z,18.90
2023-04-08T09:24:37.194Z,18.40
2023-04-08T09:27:07.930Z,18.40
2023-04-08T09:29:39.273Z,18.90
2023-04-08T09:32:08.279Z,18.60
2023-04-08T09:34:37.840Z,18.80
2023-04-08T09:37:07.262Z,18.70
2023-04-08T09:39:35.654Z,19.40
2023-04-08T09:42:10.939Z,19.60
2023-04-08T09:44:40.828Z,19.30
2023-04-08T09:47:17.715Z,19.30
2023-04-08T09:49:52.389Z,19.60
2023-04-08T09:52:31.195Z,19.50
2023-04-08T09:55:04.010Z,19.30
2023-04-08T09:57:43.253Z,19.10
2023-04-08T10:00:14.559Z,18.70
2023-04-08T10:02:50.908Z,18.80
2023-04-08T10:05:22.113Z,18.60
2023-04-08T10:07:51.939Z,18.70
2023-04-08T10:10:21.076Z,18.40
2023-04-08T10:12:50.139Z,18.70
2023-04-08T10:15:28.384Z,18.90
2023-04-08T10:18:19.254Z,19.10
2023-04-08T10:20:49.859Z,18.90
2023-04-08T10:23:21.259Z,18.70
2023-04-08T10:25:50.306Z,18.40
2023-04-08T10:28:27.886Z,18.50
2023-04-08T10:30:57.370Z,18.30
2023-04-08T10:33:32.846Z,18.40
2023-04-08T10:36:11.509Z,18.60
2023-04-08T10:38:42.057Z,18.50
2023-04-08T10:41:11.919Z,18.80
2023-04-08T10:43:40.615Z,18.60
2023-04-08T10:48:39.779Z,18.70
2023-04-08T10:51:09.314Z,18.60
2023-04-08T10:53:43.001Z,18.80
2023-04-08T10:56:13.108Z,18.50
2023-04-08T10:58:50.687Z,18.70
2023-04-08T11:01:19.343Z,19.00
2023-04-08T11:03:48.097Z,19.30
2023-04-08T11:06:19.421Z,19.40
2023-04-08T11:08:47.776Z,19.40
2023-04-08T11:11:16.297Z,19.80
2023-04-08T11:13:53.467Z,19.70
2023-04-08T11:16:22.544Z,19.90
2023-04-08T11:18:52.270Z,19.80
2023-04-08T11:21:22.560Z,20.10
2023-04-08T11:23:52.079Z,20.30
2023-04-08T11:26:21.061Z,20.60
2023-04-08T11:28:51.556Z,20.70
2023-04-08T11:31:22.796Z,20.90
2023-04-08T11:33:56.607Z,21.00
2023-04-08T11:36:27.355Z,20.90
2023-04-08T11:38:56.309Z,21.00
2023-04-08T11:41:24.622Z,21.20
2023-04-08T11:43:58.224Z,21.00
2023-04-08T11:46:28.757Z,20.50
2023-04-08T11:49:02.217Z,20.70
2023-04-08T11:51:31.920Z,20.90
2023-04-08T11:54:00.150Z,20.90
2023-04-08T11:56:30.455Z,20.50
2023-04-08T11:58:58.700Z,20.20
2023-04-08T12:01:27.693Z,20.00
2023-04-08T12:04:01.567Z,19.80
2023-04-08T12:06:31.726Z,19.20
2023-04-08T12:09:00.133Z,19.10
2023-04-08T12:11:28.599Z,18.70
2023-04-08T12:13:57.366Z,18.80
2023-04-08T12:16:25.851Z,18.60
2023-04-08T12:18:54.164Z,18.40
2023-04-08T12:21:23.593Z,18.10
2023-04-08T12:23:53.557Z,18.20
2023-04-08T12:26:21.949Z,18.40
2023-04-08T12:28:50.399Z,18.10
2023-04-08T12:31:18.639Z,18.40
2023-04-08T12:33:47.516Z,18.80
2023-04-08T12:36:15.851Z,18.70
2023-04-08T12:38:47.041Z,18.70
2023-04-08T12:41:17.087Z,18.60
2023-04-08T12:43:45.477Z,18.50
2023-04-08T12:46:13.868Z,18.30
2023-04-08T12:48:45.082Z,18.40
2023-04-08T12:51:13.428Z,18.60
2023-04-08T12:53:44.054Z,18.60
2023-04-08T12:56:16.527Z,18.70
2023-04-08T12:58:47.039Z,18.60
2023-04-08T13:01:15.368Z,18.90
2023-04-08T13:03:47.058Z,19.30
2023-04-08T13:06:15.480Z,19.40
2023-04-08T13:08:50.153Z,19.70
2023-04-08T13:11:19.925Z,19.80
2023-04-08T13:13:48.152Z,19.80
2023-04-08T13:16:16.637Z,20.30
2023-04-08T13:18:47.531Z,20.50
2023-04-08T13:21:15.715Z,20.30
2023-04-08T13:23:44.098Z,20.00
2023-04-08T13:26:12.282Z,20.10
2023-04-08T13:28:55.870Z,20.40
2023-04-08T13:31:24.734Z,20.70
2023-04-08T13:33:55.259Z,20.70
2023-04-08T13:36:25.955Z,20.30
2023-04-08T13:38:54.554Z,20.40
2023-04-08T13:41:22.773Z,20.40
2023-04-08T13:43:52.477Z,20.60
2023-04-08T13:46:23.025Z,20.70
2023-04-08T13:48:51.807Z,20.80
2023-04-08T13:51:20.287Z,21.00
2023-04-08T13:53:48.469Z,20.80
2023-04-08T13:56:16.668Z,20.40
2023-04-08T13:58:47.729Z,20.60
2023-04-08T14:01:19.688Z,20.70
2023-04-08T14:03:49.844Z,20.60
2023-04-08T14:06:17.995Z,20.80
2023-04-08T14:08:46.634Z,20.50
2023-04-08T14:11:14.795Z,20.30
2023-04-08T14:13:44.564Z,20.50
2023-04-08T14:16:12.740Z,20.80
2023-04-08T14:18:42.347Z,20.80
2023-04-08T14:21:10.555Z,20.70
2023-04-08T14:23:39.500Z,20.40
2023-04-08T14:26:07.748Z,20.20
2023-04-08T14:28:36.546Z,20.50
2023-04-08T14:31:06.647Z,20.60
2023-04-08T14:33:34.901Z,20.60
2023-04-08T14:36:04.676Z,20.10
2023-04-08T14:38:32.999Z,20.30
2023-04-08T14:41:01.167Z,20.00
2023-04-08T14:43:29.336Z,19.80
2023-04-08T14:45:57.978Z,19.50
2023-04-08T14:48:26.412Z,19.80
2023-04-08T14:50:54.997Z,20.10
2023-04-08T14:53:24.568Z,20.50
2023-04-08T14:55:52.786Z,20.50
2023-04-08T14:58:21.260Z,20.40
2023-04-08T15:00:49.423Z,20.10
2023-04-08T15:03:18.721Z,20.30
2023-04-08T15:05:57.507Z,20.00
2023-04-08T15:08:28.387Z,20.30
2023-04-08T15:10:57.010Z,20.70
2023-04-08T15:13:25.313Z,21.00
2023-04-08T15:15:53.570Z,21.00
2023-04-08T15:18:21.835Z,21.10
2023-04-08T15:20:49.998Z,21.30
2023-04-08T15:23:18.304Z,21.30
2023-04-08T15:25:48.424Z,21.50
2023-04-08T15:28:16.659Z,21.40
2023-04-08T15:30:47.692Z,21.60
2023-04-08T15:33:18.565Z,21.70
2023-04-08T15:35:47.619Z,21.60
2023-04-08T15:38:16.051Z,21.70
2023-04-08T15:40:46.761Z,22.10
2023-04-08T15:43:17.545Z,21.80
2023-04-08T15:45:46.605Z,21.50
2023-04-08T15:48:15.373Z,21.40
2023-04-08T15:50:46.743Z,21.00
2023-04-08T15:53:14.929Z,21.20
2023-04-08T15:55:44.562Z,21.10
2023-04-08T15:58:12.750Z,21.20
2023-04-08T16:00:42.368Z,21.10
2023-04-08T16:03:11.970Z,20.90
2023-04-08T16:05:41.678Z,20.60
2023-04-08T16:08:10.329Z,20.50
2023-04-08T16:10:38.552Z,20.30
2023-04-08T16:13:09.441Z,20.70
2023-04-08T16:15:38.215Z,21.10
2023-04-08T16:18:07.879Z,21.40
2023-04-08T16:20:38.350Z,21.60
2023-04-08T16:23:10.315Z,21.80
2023-04-08T16:25:38.921Z,22.10
2023-04-08T16:28:07.103Z,22.30
2023-04-08T16:30:37.978Z,22.30
2023-04-08T16:33:07.622Z,22.10
2023-04-08T16:35:35.940Z,22.20
2023-04-08T16:38:09.045Z,22.10
2023-04-08T16:40:39.238Z,22.10
2023-04-08T16:43:07.534Z,21.90
2023-04-08T16:45:39.041Z,22.10
2023-04-08T16:48:09.702Z,22.30
2023-04-08T16:50:41.528Z,22.40
2023-04-08T16:53:10.411Z,22.50
2023-04-08T16:55:38.985Z,22.60
2023-04-08T16:58:07.370Z,22.70
2023-04-08T17:00:36.338Z,22.90
2023-04-08T17:03:04.738Z,23.10
2023-04-08T17:05:34.452Z,23.20
2023-04-08T17:08:03.090Z,23.30
2023-04-08T17:10:31.354Z,23.40
2023-04-08T17:12:59.673Z,23.40
2023-04-08T17:15:28.276Z,23.50
2023-04-08T17:17:56.579Z,23.30
2023-04-08T17:20:26.503Z,23.30
2023-04-08T17:22:56.264Z,22.90
2023-04-08T17:25:24.930Z,23.10
2023-04-08T17:27:53.245Z,22.90
2023-04-08T17:30:21.598Z,22.90
2023-04-08T17:32:50.510Z,22.80
2023-04-08T17:35:18.761Z,22.80
2023-04-08T17:37:46.978Z,22.70
2023-04-08T17:40:16.839Z,22.80
2023-04-08T17:42:46.698Z,22.90
2023-04-08T17:45:15.052Z,22.70
2023-04-08T17:47:43.955Z,22.70
2023-04-08T17:50:13.088Z,22.70
2023-04-08T17:52:44.369Z,22.40
2023-04-08T17:55:12.664Z,22.20
2023-04-08T17:57:42.463Z,22.10
2023-04-08T18:00:11.347Z,22.40
2023-04-08T18:02:41.793Z,22.40
2023-04-08T18:05:11.480Z,22.40
2023-04-08T18:07:39.693Z,22.40
2023-04-08T18:10:09.288Z,22.40
2023-04-08T18:12:37.500Z,22.40
2023-04-08T18:15:10.640Z,22.50
2023-04-08T18:17:39.126Z,22.50
2023-04-08T18:20:10.317Z,22.30
2023-04-08T18:22:38.560Z,22.20
2023-04-08T18:25:07.674Z,22.10
2023-04-08T18:27:38.216Z,21.90
2023-04-08T18:30:07.635Z,21.70
2023-04-08T18:32:37.228Z,21.20
2023-04-08T18:35:05.937Z,20.90
2023-04-08T18:37:34.594Z,21.10
2023-04-08T18:40:06.363Z,21.00
2023-04-08T18:42:34.540Z,21.30
2023-04-08T18:45:10.175Z,21.40
2023-04-08T18:47:39.757Z,20.90
2023-04-08T18:50:08.625Z,21.10
2023-04-08T18:52:37.391Z,21.10
2023-04-08T18:55:06.067Z,21.00
2023-04-08T18:57:34.455Z,20.80
2023-04-08T19:00:02.997Z,21.00
2023-04-08T19:02:31.742Z,21.30
2023-04-08T19:05:01.675Z,21.30
2023-04-08T19:07:30.242Z,21.70
2023-04-08T19:09:58.735Z,22.00
2023-04-08T19:12:27.247Z,22.00
2023-04-08T19:14:55.505Z,21.60
2023-04-08T19:17:26.495Z,22.00
2023-04-08T19:19:54.675Z,22.20
2023-04-08T19:22:29.750Z,22.40
2023-04-08T19:25:00.551Z,22.50
2023-04-08T19:27:28.731Z,22.30
2023-04-08T19:29:57.528Z,22.20
2023-04-08T19:32:27.079Z,22.40
2023-04-08T19:34:56.210Z,22.20
2023-04-08T19:37:26.964Z,21.00
2023-04-08T19:39:55.845Z,20.50
2023-04-08T19:42:24.213Z,20.50
2023-04-08T19:44:53.099Z,20.50
2023-04-08T19:47:21.308Z,20.60
2023-04-08T19:49:49.499Z,20.80
2023-04-08T19:52:17.708Z,20.20
2023-04-08T19:54:53.547Z,20.80
2023-04-08T19:57:21.899Z,21.10
2023-04-08T19:59:50.121Z,21.20
2023-04-08T20:02:19.643Z,21.40
2023-04-08T20:04:48.045Z,21.10
2023-04-08T20:07:16.247Z,21.20
2023-04-08T20:09:48.612Z,21.50
2023-04-08T20:12:16.817Z,21.10
2023-04-08T20:14:45.108Z,21.50
2023-04-08T20:17:15.334Z,21.70
2023-04-08T20:19:43.658Z,21.10
2023-04-08T20:22:12.416Z,20.30
2023-04-08T20:24:41.733Z,20.50
2023-04-08T20:27:12.113Z,20.20
2023-04-08T20:29:41.864Z,20.20
2023-04-08T20:32:10.299Z,20.20
2023-04-08T20:34:38.909Z,20.20
2023-04-08T20:37:07.675Z,20.50
2023-04-08T20:39:35.893Z,20.90
2023-04-08T20:42:06.565Z,21.20
2023-04-08T20:44:37.281Z,21.60
2023-04-08T20:47:06.609Z,21.70
2023-04-08T20:49:35.500Z,21.80
2023-04-08T20:52:03.692Z,22.00
2023-04-08T20:54:32.252Z,22.20
2023-04-08T20:57:00.688Z,22.10
2023-04-08T20:59:28.859Z,22.10
2023-04-08T21:01:58.517Z,22.20
2023-04-08T21:04:26.763Z,22.10
2023-04-08T21:06:55.031Z,22.20
2023-04-08T21:09:23.205Z,22.40
2023-04-08T21:11:51.494Z,22.40
2023-04-08T21:14:19.686Z,22.40
2023-04-08T21:16:47.998Z,22.40
2023-04-08T21:19:17.682Z,22.40
2023-04-08T21:21:46.509Z,22.60
2023-04-08T21:24:14.722Z,22.60
2023-04-08T21:26:45.836Z,22.30
2023-04-08T21:29:14.017Z,22.40
2023-04-08T21:31:42.304Z,22.40
2023-04-08T21:34:10.934Z,22.30
2023-04-08T21:36:40.512Z,22.50
2023-04-08T21:39:09.752Z,22.40
2023-04-08T21:41:37.927Z,22.50
2023-04-08T21:44:10.176Z,22.40
2023-04-08T21:46:38.418Z,22.00
2023-04-08T21:49:11.165Z,22.00
2023-04-08T21:51:41.006Z,22.10
2023-04-08T21:54:09.207Z,22.30
2023-04-08T21:56:37.400Z,22.10
2023-04-08T21:59:05.563Z,22.00
2023-04-08T22:01:33.875Z,22.10
2023-04-08T22:04:02.328Z,22.00
2023-04-08T22:06:32.742Z,21.10
2023-04-08T22:09:02.858Z,21.40
2023-04-08T22:11:31.075Z,21.70
2023-04-08T22:13:59.302Z,21.80
2023-04-08T22:16:27.526Z,21.90
2023-04-08T22:18:55.712Z,21.80
2023-04-08T22:21:24.824Z,22.00
2023-04-08T22:23:53.004Z,21.80
2023-04-08T22:26:22.639Z,21.60
2023-04-08T22:28:51.052Z,21.90
2023-04-08T22:31:19.820Z,21.90
2023-04-08T22:33:48.055Z,21.90
2023-04-08T22:36:16.888Z,22.00
2023-04-08T22:38:45.050Z,21.50
2023-04-08T22:41:18.910Z,21.00
2023-04-08T22:43:48.733Z,21.10
2023-04-08T22:46:18.248Z,21.50
2023-04-08T22:48:46.720Z,21.80
2023-04-08T22:51:14.924Z,22.00
2023-04-08T22:53:43.646Z,22.00
2023-04-08T22:56:11.866Z,22.10
2023-04-08T22:58:40.265Z,22.10
2023-04-08T23:01:18.017Z,21.90
2023-04-08T23:03:46.382Z,21.80
2023-04-08T23:06:14.567Z,21.90
2023-04-08T23:08:43.194Z,21.80
2023-04-08T23:11:11.382Z,21.10
2023-04-08T23:13:39.631Z,21.30
2023-04-08T23:16:09.264Z,21.30
2023-04-08T23:18:38.887Z,21.60
2023-04-08T23:21:07.219Z,21.70
2023-04-08T23:23:35.414Z,21.60
2023-04-08T23:26:03.614Z,21.50
2023-04-08T23:28:31.800Z,21.60
2023-04-08T23:31:00.098Z,21.30
2023-04-08T23:33:30.329Z,21.10
2023-04-08T23:35:59.906Z,21.00
2023-04-08T23:38:28.528Z,20.90
2023-04-08T23:40:56.686Z,21.00
2023-04-08T23:43:24.938Z,21.00
2023-04-08T23:45:53.099Z,20.80
2023-04-08T23:48:21.270Z,20.30
2023-04-08T23:50:52.074Z,20.50
2023-04-08T23:53:22.090Z,20.10
2023-04-08T23:55:50.323Z,20.20
2023-04-08T23:58:18.505Z,20.40
